This is the latest recevied weather packets stored in our database for station/object KF4ERV-4. If no packets are shown the sender has not sent any weather packets the latest 10 day(s).
| Time | Temp. | Humidity | Pressure | Rain* | Wind** | Luminosity | Snow |
|---|---|---|---|---|---|---|---|
| 1777442837 | 16.11° C | 69% | 1013 hPa | 0 mm | - | - | - |
| 1777442833 | 16.11° C | 66% | 1013 hPa | 0 mm | - | - | - |
| 1777442681 | 16.11° C | 69% | 1013 hPa | 0 mm | - | - | - |
| 1777442644 | 16.11° C | 66% | 1013 hPa | 0 mm | - | - | - |
| 1777442372 | 16.11° C | 66% | 1013 hPa | 0 mm | - | - | - |
| 1777442353 | 16.11° C | 66% | 1013 hPa | 0 mm | - | - | - |
| 1777442198 | 16.11° C | 66% | 1013 hPa | 0 mm | - | - | - |
| 1777442076 | 16.11° C | 66% | 1013 hPa | 0 mm | - | - | - |
| 1777441775 | 16.11° C | 66% | 1013 hPa | 0 mm | - | - | - |
| 1777441661 | 16.11° C | 64% | 1013 hPa | 0 mm | - | - | - |
| 1777441482 | 16.11° C | 64% | 1013 hPa | 0 mm | - | - | - |
| 1777441173 | 16.11° C | 63% | 1013 hPa | 0 mm | - | - | - |
| 1777440995 | 16.11° C | 59% | 1012.4 hPa | 0 mm | - | - | - |
| 1777440877 | 16.11° C | 59% | 1012.4 hPa | 0 mm | - | - | - |
| 1777440613 | 16.11° C | 55% | 1011.9 hPa | 0 mm | - | - | - |
| 1777440580 | 16.11° C | 55% | 1011.9 hPa | 0 mm | - | - | - |
| 1777440323 | 16.11° C | 56% | 1011.4 hPa | 0 mm | - | - | - |
| 1777440282 | 16.11° C | 56% | 1011.4 hPa | 0 mm | - | - | - |
| 1777440122 | 16.11° C | 54% | 1012 hPa | 0 mm | - | - | - |
| 1777440034 | 16.11° C | 54% | 1012 hPa | 0 mm | - | - | - |
| 1777439976 | 16.11° C | 54% | 1012 hPa | 0 mm | - | - | - |
| 1777439743 | 16.11° C | 60% | 1012.2 hPa | 0 mm | - | - | - |
| 1777439677 | 16.11° C | 60% | 1012.2 hPa | 0 mm | - | - | - |
| 1777439453 | 16.11° C | 69% | 1013 hPa | 0 mm | - | - | - |
| 1777439380 | 16.11° C | 69% | 1013 hPa | 0 mm | - | - | - |
* Rain latest hour (hover to see other rain measurements)
** Current wind speed in m/s (hover to see current wind gust speed)